Time;durP1;ratioP1;P1;durP2;ratioP2;P2;SDS_P1;SDS_P2;PMS_P1;PMS_P2;Temp;Humidity;BMP_temperature;BMP_pressure;BME280_temperature;BME280_humidity;BME280_pressure;Samples;Min_cycle;Max_cycle;Signal;HPM_P1;HPM_P2
2022/07/17 00:00:18;;;;;;;2.65;1.27;;;;;;;27.51;44.64;99061.94;6160361;23;20570;-89
2022/07/17 00:02:44;;;;;;;3.50;1.50;;;;;;;27.48;44.87;99063.16;6186365;23;20177;-90
2022/07/17 00:05:10;;;;;;;3.87;1.27;;;;;;;27.46;44.76;99064.38;6186298;23;20150;-89
2022/07/17 00:07:35;;;;;;;2.90;1.40;;;;;;;27.49;44.60;99072.91;6186653;23;20151;-89
2022/07/17 00:10:01;;;;;;;2.53;1.20;;;;;;;27.49;43.90;99064.81;6186255;23;20458;-89
2022/07/17 00:12:27;;;;;;;2.38;1.23;;;;;;;27.42;44.05;99063.91;6160583;23;20151;-89
2022/07/17 00:14:53;;;;;;;1.83;0.90;;;;;;;27.39;44.51;99065.13;6186126;23;20499;-90
2022/07/17 00:17:18;;;;;;;1.80;1.02;;;;;;;27.41;44.02;99068.47;6160321;23;20237;-89
2022/07/17 00:19:44;;;;;;;3.28;0.95;;;;;;;27.48;43.81;99065.03;6186307;23;20567;-89
2022/07/17 00:22:10;;;;;;;2.47;0.98;;;;;;;27.50;43.61;99071.03;6186168;23;20161;-90
2022/07/17 00:24:35;;;;;;;3.93;1.37;;;;;;;27.48;43.02;99073.94;6186543;23;20147;-88
2022/07/17 00:27:01;;;;;;;1.30;0.90;;;;;;;27.46;43.24;99075.16;6186092;23;20569;-90
2022/07/17 00:29:26;;;;;;;3.40;1.42;;;;;;;27.33;44.03;99076.59;6186082;23;20147;-90
2022/07/17 00:31:52;;;;;;;3.00;0.93;;;;;;;27.29;44.33;99079.88;6186017;23;20146;-89
2022/07/17 00:34:17;;;;;;;3.63;1.00;;;;;;;27.25;44.14;99075.91;6186629;23;20258;-90
2022/07/17 00:36:42;;;;;;;1.23;0.82;;;;;;;27.16;43.99;99082.41;6160120;23;20245;-88
2022/07/17 00:39:08;;;;;;;6.85;1.10;;;;;;;27.13;44.04;99080.91;6185981;23;20143;-89
2022/07/17 00:41:35;;;;;;;4.80;1.27;;;;;;;27.17;44.32;99078.69;6160038;23;20162;-88
2022/07/17 00:44:08;;;;;;;2.67;1.33;;;;;;;27.17;44.45;99079.53;6159950;23;20593;-89
2022/07/17 00:46:34;;;;;;;3.05;1.58;;;;;;;27.11;44.70;99074.91;6186251;23;20560;-89
2022/07/17 00:49:00;;;;;;;2.78;1.15;;;;;;;27.07;45.40;99078.97;6185828;23;20228;-88
2022/07/17 00:51:26;;;;;;;2.33;1.30;;;;;;;26.97;45.85;99075.72;6185803;23;20224;-90
2022/07/17 00:53:52;;;;;;;2.60;1.45;;;;;;;26.97;46.45;99080.28;6159650;23;20194;-89
2022/07/17 00:56:21;;;;;;;1.67;0.90;;;;;;;27.02;45.78;99088.66;6159958;23;20161;-89
2022/07/17 00:58:49;;;;;;;2.78;1.50;;;;;;;26.93;46.19;99081.69;6186176;23;20185;-89
2022/07/17 01:01:16;;;;;;;5.40;1.42;;;;;;;26.91;46.08;99083.72;6185800;23;20158;-89
2022/07/17 01:03:41;;;;;;;3.15;1.10;;;;;;;26.93;45.97;99079.81;6186153;23;20212;-90
2022/07/17 01:06:07;;;;;;;4.75;1.20;;;;;;;26.86;46.24;99083.44;6185693;23;20174;-89
2022/07/17 01:08:33;;;;;;;3.17;0.98;;;;;;;26.73;46.44;99076.81;6159798;23;20242;-89
2022/07/17 01:10:59;;;;;;;4.18;1.20;;;;;;;26.80;45.90;99085.03;6185721;23;20165;-89
2022/07/17 01:13:26;;;;;;;1.17;0.65;;;;;;;26.81;46.26;99090.19;6185952;23;20178;-89
2022/07/17 01:15:51;;;;;;;1.97;0.80;;;;;;;26.96;45.58;99094.75;6185970;23;20150;-89
2022/07/17 01:18:17;;;;;;;1.87;1.03;;;;;;;26.98;45.37;99098.94;6185612;23;20185;-89
2022/07/17 01:20:45;;;;;;;2.40;1.10;;;;;;;26.72;45.97;99082.38;6185613;23;20161;-89
2022/07/17 01:23:11;;;;;;;1.73;1.20;;;;;;;26.60;47.07;99089.22;6186316;23;20221;-88
2022/07/17 01:25:37;;;;;;;2.53;1.20;;;;;;;26.59;46.94;99092.94;6185944;23;20236;-89
2022/07/17 01:28:03;;;;;;;8.90;1.92;;;;;;;26.44;48.02;99090.22;6185980;23;20146;-89
2022/07/17 01:30:29;;;;;;;2.53;1.30;;;;;;;26.38;48.23;99084.75;6185884;23;20151;-90
2022/07/17 01:32:55;;;;;;;2.83;1.40;;;;;;;26.29;48.85;99081.28;6185214;23;20160;-90
2022/07/17 01:35:21;;;;;;;2.85;1.70;;;;;;;26.20;49.26;99093.94;6185850;23;20166;-89
2022/07/17 01:37:47;;;;;;;2.57;1.53;;;;;;;26.14;50.29;99097.38;6185566;23;20150;-90
2022/07/17 01:40:14;;;;;;;4.37;1.83;;;;;;;26.05;50.74;99097.56;6185562;23;20146;-89
2022/07/17 01:42:44;;;;;;;3.00;2.10;;;;;;;26.18;50.06;99095.97;6185871;23;20150;-90
2022/07/17 01:45:10;;;;;;;3.63;2.10;;;;;;;26.26;49.63;99091.56;6186207;23;20151;-89
2022/07/17 01:47:36;;;;;;;3.47;1.33;;;;;;;26.30;49.52;99098.25;6185930;23;20570;-89
2022/07/17 01:50:02;;;;;;;3.57;2.03;;;;;;;26.16;50.62;99103.41;6185514;23;20233;-90
2022/07/17 01:52:28;;;;;;;3.00;1.80;;;;;;;26.07;51.05;99103.63;6159467;23;20158;-90
2022/07/17 01:54:53;;;;;;;3.30;1.77;;;;;;;25.97;51.40;99109.22;6185311;23;20511;-89
2022/07/17 01:57:20;;;;;;;5.53;2.00;;;;;;;25.84;51.93;99108.97;6185809;23;20165;-89
2022/07/17 01:59:45;;;;;;;8.43;2.30;;;;;;;25.78;51.91;99119.59;6159586;23;20197;-89
2022/07/17 02:02:15;;;;;;;4.57;2.00;;;;;;;25.78;51.75;99115.06;6159442;23;20162;-89
2022/07/17 02:04:45;;;;;;;2.80;1.70;;;;;;;25.76;52.03;99114.38;6159821;23;20214;-89
2022/07/17 02:07:11;;;;;;;3.00;2.03;;;;;;;25.72;52.26;99114.94;6184277;23;20150;-90
2022/07/17 02:09:37;;;;;;;2.70;1.97;;;;;;;25.72;52.06;99110.41;6185825;23;20571;-89
2022/07/17 02:12:03;;;;;;;3.63;1.40;;;;;;;25.64;52.43;99113.13;6185412;23;20147;-89
2022/07/17 02:14:30;;;;;;;2.53;1.67;;;;;;;25.55;52.47;99116.88;6184876;23;20182;-90
2022/07/17 02:16:55;;;;;;;3.57;1.73;;;;;;;25.61;52.20;99117.00;6159227;23;20193;-88
2022/07/17 02:19:21;;;;;;;2.70;1.80;;;;;;;25.57;52.21;99113.03;6185190;23;20150;-89
2022/07/17 02:21:46;;;;;;;3.63;1.80;;;;;;;25.37;53.32;99113.56;6159338;23;20158;-90
2022/07/17 02:24:12;;;;;;;3.13;1.87;;;;;;;25.40;53.04;99118.59;6185769;23;20443;-89
2022/07/17 02:26:38;;;;;;;3.23;1.80;;;;;;;25.36;53.05;99112.75;6185421;23;20496;-89
2022/07/17 02:29:03;;;;;;;5.17;2.03;;;;;;;25.31;53.74;99123.19;6185266;23;20526;-89
2022/07/17 02:31:29;;;;;;;3.40;2.00;;;;;;;25.27;53.82;99121.00;6185085;23;20574;-89
2022/07/17 02:33:55;;;;;;;3.10;1.80;;;;;;;25.18;54.52;99128.25;6185156;23;20258;-88
2022/07/17 02:36:20;;;;;;;9.83;1.90;;;;;;;25.04;55.28;99127.13;6158917;23;20571;-89
2022/07/17 02:38:45;;;;;;;3.33;2.07;;;;;;;25.16;54.09;99132.13;6159219;23;20151;-89
2022/07/17 02:41:11;;;;;;;3.67;2.33;;;;;;;25.17;54.39;99121.22;6158969;23;20169;-89
2022/07/17 02:43:36;;;;;;;6.70;2.37;;;;;;;25.12;54.56;99130.78;6160614;23;20155;-88
2022/07/17 02:46:03;;;;;;;4.23;2.20;;;;;;;25.08;54.71;99132.16;6186833;23;20151;-89
2022/07/17 02:48:28;;;;;;;3.17;1.83;;;;;;;25.12;53.97;99128.94;6160559;23;20466;-89
2022/07/17 02:50:54;;;;;;;3.80;2.00;;;;;;;25.09;54.45;99133.81;6186478;23;20160;-89
2022/07/17 02:53:19;;;;;;;3.20;2.20;;;;;;;24.93;54.88;99135.53;6186021;23;20182;-89
2022/07/17 02:55:45;;;;;;;4.20;2.40;;;;;;;24.85;55.14;99132.88;6185431;23;20189;-88
2022/07/17 02:58:10;;;;;;;3.80;2.27;;;;;;;24.92;54.55;99136.53;6186626;23;20570;-88
2022/07/17 03:00:36;;;;;;;3.00;1.77;;;;;;;24.98;54.17;99132.31;6186358;23;20220;-89
2022/07/17 03:03:04;;;;;;;3.77;2.00;;;;;;;24.97;54.39;99131.47;6186630;23;20156;-89
2022/07/17 03:05:29;;;;;;;3.57;1.93;;;;;;;24.93;54.43;99127.50;6186754;23;20150;-88
2022/07/17 03:07:55;;;;;;;3.93;2.47;;;;;;;24.93;54.48;99135.53;6187171;23;20150;-89
2022/07/17 03:10:20;;;;;;;5.00;1.97;;;;;;;24.89;54.27;99139.59;6187381;23;20161;-90
2022/07/17 03:12:46;;;;;;;3.33;2.10;;;;;;;24.87;54.23;99141.56;6187110;23;20228;-90
2022/07/17 03:15:12;;;;;;;2.33;1.73;;;;;;;24.82;54.89;99140.41;6160696;23;20256;-90
2022/07/17 03:17:38;;;;;;;3.80;2.10;;;;;;;24.79;54.73;99146.13;6160798;23;20725;-89
2022/07/17 03:20:04;;;;;;;5.83;2.27;;;;;;;24.76;55.28;99144.59;6186768;23;20152;-90
2022/07/17 03:22:29;;;;;;;3.33;2.13;;;;;;;24.74;55.08;99146.59;6186681;23;20233;-89
2022/07/17 03:24:55;;;;;;;3.53;2.07;;;;;;;24.74;55.14;99149.28;6186998;23;20153;-89
2022/07/17 03:27:21;;;;;;;3.40;1.80;;;;;;;24.68;55.14;99147.28;6160684;23;20500;-89
2022/07/17 03:29:46;;;;;;;3.87;2.13;;;;;;;24.64;55.06;99145.94;6186616;23;20150;-88
2022/07/17 03:32:11;;;;;;;2.77;1.90;;;;;;;24.58;55.39;99146.59;6186961;23;20154;-89
2022/07/17 03:34:38;;;;;;;4.03;2.00;;;;;;;24.62;55.17;99141.75;6186575;23;20170;-89
2022/07/17 03:37:04;;;;;;;3.77;2.23;;;;;;;24.72;54.64;99148.63;6160509;23;20159;-89
2022/07/17 03:39:30;;;;;;;5.27;2.33;;;;;;;24.72;54.93;99153.13;6160527;23;20158;-90
2022/07/17 03:41:55;;;;;;;2.93;1.87;;;;;;;24.60;55.33;99151.81;6186868;23;20150;-90
2022/07/17 03:44:21;;;;;;;3.67;2.13;;;;;;;24.51;55.70;99159.00;6186803;23;20162;-89
2022/07/17 03:46:47;;;;;;;3.20;2.20;;;;;;;24.48;55.71;99151.31;6186476;23;20151;-90
2022/07/17 03:49:12;;;;;;;2.93;2.03;;;;;;;24.45;55.98;99157.84;6160461;23;20154;-89
2022/07/17 03:51:38;;;;;;;4.30;2.50;;;;;;;24.43;55.54;99159.00;6186367;23;20154;-89
2022/07/17 03:54:03;;;;;;;4.70;2.37;;;;;;;24.49;55.66;99158.34;6185963;23;20610;-89
2022/07/17 03:56:29;;;;;;;4.83;2.03;;;;;;;24.57;55.73;99147.63;6186119;23;20142;-90
2022/07/17 03:58:54;;;;;;;3.90;2.00;;;;;;;24.75;55.10;99164.38;6186674;23;20221;-89
2022/07/17 04:01:20;;;;;;;4.03;2.20;;;;;;;24.81;54.64;99162.88;6186997;23;20157;-89
2022/07/17 04:03:45;;;;;;;6.33;2.10;;;;;;;24.80;54.44;99162.03;6160275;23;20146;-89
2022/07/17 04:06:11;;;;;;;9.20;2.60;;;;;;;24.79;54.74;99168.41;6186223;23;20216;-89
2022/07/17 04:08:36;;;;;;;6.70;2.13;;;;;;;24.74;55.40;99175.25;6186552;23;20589;-89
2022/07/17 04:11:02;;;;;;;6.40;2.73;;;;;;;24.75;55.29;99179.59;6186508;23;20146;-88
2022/07/17 04:13:27;;;;;;;3.90;2.13;;;;;;;24.70;55.18;99177.44;6186422;23;20178;-89
2022/07/17 04:15:55;;;;;;;3.30;2.53;;;;;;;24.73;55.41;99187.84;6186474;23;20535;-89
2022/07/17 04:18:23;;;;;;;4.87;2.17;;;;;;;24.76;55.67;99183.97;6186745;23;20154;-89
2022/07/17 04:20:49;;;;;;;5.30;2.30;;;;;;;24.98;55.02;99181.44;6186385;23;20228;-89
2022/07/17 04:23:15;;;;;;;4.80;2.10;;;;;;;25.18;54.53;99186.44;6186420;23;20173;-90
2022/07/17 04:25:41;;;;;;;4.93;2.53;;;;;;;25.25;54.49;99195.47;6160071;23;20260;-90
2022/07/17 04:28:07;;;;;;;4.60;2.03;;;;;;;25.35;54.13;99190.72;6160131;23;20161;-88
2022/07/17 04:30:33;;;;;;;3.90;2.10;;;;;;;25.37;54.87;99194.06;6186466;23;20172;-88
2022/07/17 04:32:59;;;;;;;3.40;2.27;;;;;;;25.38;55.78;99185.88;6186011;23;20578;-89
2022/07/17 04:35:25;;;;;;;6.13;2.17;;;;;;;25.43;55.73;99190.72;6185827;23;20178;-88
2022/07/17 04:37:50;;;;;;;3.43;2.20;;;;;;;25.50;55.89;99186.34;6185976;23;20162;-88
2022/07/17 04:40:16;;;;;;;2.30;1.43;;;;;;;25.51;55.81;99188.88;6186658;23;20467;-88
2022/07/17 04:42:41;;;;;;;4.03;1.87;;;;;;;25.54;55.27;99193.91;6185849;23;20147;-88
2022/07/17 04:45:07;;;;;;;3.27;1.73;;;;;;;25.56;55.61;99196.41;6186227;23;20143;-89
2022/07/17 04:47:34;;;;;;;3.57;1.87;;;;;;;25.69;56.12;99202.03;6185870;23;20146;-89
2022/07/17 04:49:59;;;;;;;4.07;1.90;;;;;;;25.84;55.81;99199.47;6185814;23;20154;-89
2022/07/17 04:52:25;;;;;;;6.23;1.93;;;;;;;25.93;55.23;99191.19;6186408;23;20229;-89
2022/07/17 04:54:50;;;;;;;3.03;1.90;;;;;;;26.06;55.04;99198.66;6159907;23;20186;-88
2022/07/17 04:57:16;;;;;;;4.97;1.80;;;;;;;26.33;54.48;99194.66;6159817;23;20542;-89
2022/07/17 04:59:41;;;;;;;4.33;1.93;;;;;;;26.40;54.40;99193.75;6185797;23;20150;-88
2022/07/17 05:02:07;;;;;;;2.20;1.10;;;;;;;26.44;54.96;99196.94;6185676;23;20479;-89
2022/07/17 05:04:32;;;;;;;6.07;2.23;;;;;;;26.65;54.15;99203.28;6159722;23;20225;-89
2022/07/17 05:06:58;;;;;;;4.53;1.33;;;;;;;26.67;52.83;99197.72;6186050;23;20200;-90
2022/07/17 05:09:24;;;;;;;2.13;1.20;;;;;;;26.88;52.80;99203.28;6185711;23;20161;-89
2022/07/17 05:11:49;;;;;;;1.90;1.30;;;;;;;27.03;50.92;99206.84;6159851;23;20158;-89
2022/07/17 05:14:14;;;;;;;2.40;1.40;;;;;;;27.10;50.40;99202.38;6185674;23;20476;-89
2022/07/17 05:16:40;;;;;;;3.57;1.40;;;;;;;27.15;49.06;99202.66;6186012;23;20161;-89
2022/07/17 05:19:05;;;;;;;2.80;1.70;;;;;;;27.32;49.32;99209.56;6186086;23;20212;-90
2022/07/17 05:21:31;;;;;;;4.03;1.63;;;;;;;27.28;48.66;99207.44;6186136;23;20446;-90
2022/07/17 05:23:57;;;;;;;2.67;1.58;;;;;;;27.46;48.41;99207.94;6159708;23;20484;-89
2022/07/17 05:26:24;;;;;;;2.78;1.60;;;;;;;27.62;47.58;99214.97;6160782;23;20184;-91
2022/07/17 05:28:49;;;;;;;3.03;1.52;;;;;;;27.83;46.97;99212.34;6186074;23;20559;-91
2022/07/17 05:31:17;;;;;;;2.00;1.27;;;;;;;28.11;46.40;99210.63;6160124;23;20154;-91
2022/07/17 05:33:42;;;;;;;2.97;1.42;;;;;;;28.24;45.85;99208.09;6185611;23;20206;-91
2022/07/17 05:36:08;;;;;;;2.53;1.70;;;;;;;28.43;44.99;99215.50;6185605;23;20163;-89
2022/07/17 05:38:34;;;;;;;3.60;1.35;;;;;;;28.61;45.23;99213.25;6160090;23;20161;-90
2022/07/17 05:41:00;;;;;;;4.53;1.75;;;;;;;28.73;44.68;99213.56;6159948;23;20154;-89
2022/07/17 05:43:29;;;;;;;2.95;1.40;;;;;;;28.73;43.10;99210.00;6185669;23;20147;-90
2022/07/17 05:45:58;;;;;;;5.70;1.52;;;;;;;28.94;42.49;99212.69;6160228;23;20181;-92
2022/07/17 05:48:25;;;;;;;2.28;1.30;;;;;;;28.98;41.76;99219.38;6185646;23;20150;-91
2022/07/17 05:50:51;;;;;;;3.08;1.40;;;;;;;28.99;42.02;99226.41;6159642;23;20158;-92
2022/07/17 05:53:16;;;;;;;3.08;1.50;;;;;;;29.02;41.85;99226.88;6185734;23;20238;-89
2022/07/17 05:55:42;;;;;;;3.97;1.70;;;;;;;29.08;42.73;99222.56;6185479;23;20154;-89
2022/07/17 05:58:08;;;;;;;3.80;1.70;;;;;;;29.26;42.49;99216.69;6159688;23;20217;-91
2022/07/17 06:00:34;;;;;;;3.20;1.85;;;;;;;29.23;41.56;99226.84;6186015;23;20197;-90
2022/07/17 06:03:00;;;;;;;3.05;1.88;;;;;;;29.26;41.36;99231.03;6159584;23;20158;-90
2022/07/17 06:05:43;;;;;;;5.63;2.05;;;;;;;29.36;41.31;99228.81;6159493;23;20245;-90
2022/07/17 06:08:09;;;;;;;2.35;1.75;;;;;;;29.43;40.74;99224.28;6186179;23;20213;-90
2022/07/17 06:10:34;;;;;;;2.10;1.60;;;;;;;29.24;40.01;99230.41;6159560;23;20484;-89
2022/07/17 06:13:00;;;;;;;2.78;1.35;;;;;;;29.34;41.04;99241.69;6186166;23;20155;-89
2022/07/17 06:15:26;;;;;;;2.13;1.20;;;;;;;29.35;40.04;99231.72;6160006;23;20178;-88
2022/07/17 06:17:54;;;;;;;3.33;2.00;;;;;;;29.41;40.69;99245.25;6186638;23;20558;-89
2022/07/17 06:20:29;;;;;;;6.70;1.60;;;;;;;29.44;40.50;99236.75;6187389;23;20162;-90
2022/07/17 06:22:54;;;;;;;5.10;2.00;;;;;;;29.58;40.31;99238.50;6161831;23;20142;-91
2022/07/17 06:25:23;;;;;;;2.78;1.70;;;;;;;29.86;40.09;99234.91;6161695;23;20157;-90
2022/07/17 06:27:51;;;;;;;2.35;1.70;;;;;;;29.99;40.63;99240.38;6187383;23;20573;-90
2022/07/17 06:30:47;;;;;;;4.32;2.38;;;;;;;30.06;40.43;99238.56;6161424;23;20342;-89
2022/07/17 06:33:12;;;;;;;3.33;1.75;;;;;;;30.32;40.49;99235.94;6187336;23;20145;-91
2022/07/17 06:35:38;;;;;;;9.23;5.20;;;;;;;30.54;40.32;99242.88;6187601;23;20158;-91
2022/07/17 06:38:04;;;;;;;11.52;4.55;;;;;;;30.49;39.60;99239.94;6187162;23;20157;-89
2022/07/17 06:40:33;;;;;;;9.73;3.58;;;;;;;30.55;40.11;99246.41;6188198;23;20161;-91
2022/07/17 06:42:58;;;;;;;5.32;2.67;;;;;;;30.91;39.79;99246.88;6187246;23;20146;-90
2022/07/17 06:45:44;;;;;;;10.43;5.22;;;;;;;30.91;37.93;99252.31;6161000;23;20158;-90
2022/07/17 06:48:12;;;;;;;6.25;3.80;;;;;;;30.87;38.80;99242.91;6161108;23;20222;-90
2022/07/17 06:50:38;;;;;;;3.72;2.28;;;;;;;30.66;39.19;99246.63;6161506;23;20154;-89
2022/07/17 06:53:09;;;;;;;5.03;2.30;;;;;;;30.75;39.11;99253.50;6161061;23;20150;-90
2022/07/17 06:55:34;;;;;;;3.42;2.00;;;;;;;30.92;39.07;99243.16;6187836;23;20197;-90
2022/07/17 06:58:00;;;;;;;3.17;1.63;;;;;;;30.94;37.68;99247.31;6186990;23;20155;-87
2022/07/17 07:00:25;;;;;;;6.30;2.10;;;;;;;30.88;38.03;99234.56;6187700;23;20150;-90
2022/07/17 07:02:54;;;;;;;4.13;2.33;;;;;;;31.01;37.75;99242.72;6184159;23;20476;-90
2022/07/17 07:05:25;;;;;;;2.92;1.77;;;;;;;31.03;37.85;99237.94;6161157;23;20165;-90
2022/07/17 07:07:54;;;;;;;3.47;2.05;;;;;;;31.21;36.55;99236.47;6185773;23;20154;-90
2022/07/17 07:10:20;;;;;;;2.65;1.40;;;;;;;31.25;37.30;99237.69;6159794;23;20154;-90
2022/07/17 07:12:51;;;;;;;3.25;1.83;;;;;;;31.53;37.30;99239.13;6158495;23;20234;-89
2022/07/17 07:15:18;;;;;;;2.55;1.40;;;;;;;31.68;36.54;99238.06;6159435;23;20217;-91
2022/07/17 07:17:47;;;;;;;3.47;1.77;;;;;;;31.98;35.54;99236.47;6185367;23;20151;-89
2022/07/17 07:20:23;;;;;;;;;;;;;;;;;;;;;
2022/07/17 07:22:56;;;;;;;3.38;1.63;;;;;;;32.42;35.53;99225.63;6185656;23;20218;-90
2022/07/17 07:25:24;;;;;;;2.83;1.75;;;;;;;32.50;34.47;99233.50;6185303;23;20127;-89
2022/07/17 07:27:49;;;;;;;2.70;1.58;;;;;;;32.65;34.22;99233.25;6185046;23;20146;-89
2022/07/17 07:30:15;;;;;;;2.95;1.70;;;;;;;32.75;34.27;99241.72;6185200;23;20161;-91
2022/07/17 07:32:41;;;;;;;3.80;1.80;;;;;;;32.90;34.29;99239.53;6160792;23;20165;-91
2022/07/17 07:35:10;;;;;;;3.53;1.52;;;;;;;33.07;33.55;99234.41;6186283;23;20170;-91
2022/07/17 07:37:43;;;;;;;2.63;1.45;;;;;;;33.16;34.22;99233.06;6186419;23;20182;-89
2022/07/17 07:40:10;;;;;;;2.95;1.73;;;;;;;33.45;33.20;99245.09;6185834;23;20142;-91
2022/07/17 07:42:36;;;;;;;2.95;1.73;;;;;;;33.66;31.57;99237.38;6160717;23;20174;-90
2022/07/17 07:45:08;;;;;;;2.70;1.40;;;;;;;33.78;32.78;99249.16;6160642;23;20150;-91
2022/07/17 07:48:02;;;;;;;2.75;1.50;;;;;;;33.92;32.85;99244.38;6160954;23;20158;-92
2022/07/17 07:50:40;;;;;;;;;;;;;;;;;;;;;
2022/07/17 07:53:12;;;;;;;1.50;1.10;;;;;;;34.34;30.48;99238.00;6187342;23;20298;-90
2022/07/17 07:55:53;;;;;;;4.45;1.55;;;;;;;34.66;31.12;99244.06;6161514;23;20174;-91
2022/07/17 07:58:25;;;;;;;1.85;1.27;;;;;;;34.50;31.00;99253.69;6187184;23;20142;-90
2022/07/17 08:01:15;;;;;;;3.03;1.15;;;;;;;34.84;31.48;99245.88;6160682;23;20154;-91
2022/07/17 08:04:03;;;;;;;6.32;3.20;;;;;;;34.99;29.02;99254.41;6186841;23;20143;-91
2022/07/17 08:06:46;;;;;;;7.78;3.22;;;;;;;35.03;30.16;99255.63;6067442;23;20209;-91
2022/07/17 08:10:17;;;;;;;13.02;5.35;;;;;;;34.95;30.29;99245.91;6183543;23;20154;-90
2022/07/17 08:16:22;;;;;;;2.65;1.50;;;;;;;35.48;29.10;99254.03;6069988;23;20207;-91
2022/07/17 08:19:55;;;;;;;;;;;;;;;;;;;;;
2022/07/17 08:22:56;;;;;;;2.67;1.58;;;;;;;35.31;28.78;99244.03;6007802;23;20233;-90
2022/07/17 08:25:21;;;;;;;1.98;1.13;;;;;;;35.66;28.14;99251.19;5981868;23;20232;-90
2022/07/17 08:27:48;;;;;;;2.72;1.00;;;;;;;35.70;26.79;99255.06;6042835;23;20153;-89
2022/07/17 08:30:36;;;;;;;5.20;1.50;;;;;;;35.94;26.40;99249.56;6067002;23;20185;-91
2022/07/17 08:33:08;;;;;;;6.60;2.50;;;;;;;35.94;27.22;99255.03;6113959;23;20159;-89
2022/07/17 08:35:38;;;;;;;4.57;1.75;;;;;;;35.98;27.04;99254.28;6185701;23;20206;-89
2022/07/17 08:38:20;;;;;;;2.28;1.05;;;;;;;36.06;25.48;99247.69;6186457;23;20154;-90
2022/07/17 08:40:52;;;;;;;7.68;1.77;;;;;;;35.69;26.40;99241.69;6160062;23;20567;-91
2022/07/17 08:43:51;;;;;;;5.78;2.95;;;;;;;36.00;27.37;99254.91;6159671;23;20158;-92
2022/07/17 08:50:42;;;;;;;2.05;1.27;;;;;;;36.08;26.58;99238.19;6043964;23;20253;-91
2022/07/17 08:53:30;;;;;;;4.20;1.80;;;;;;;36.07;25.10;99252.06;5998448;23;20161;-91
2022/07/17 08:56:31;;;;;;;3.20;1.55;;;;;;;36.15;26.37;99252.50;5988698;23;20173;-91
2022/07/17 09:01:59;;;;;;;1.60;1.00;;;;;;;36.75;23.80;99252.84;6159979;23;20209;-90
2022/07/17 09:05:24;;;;;;;1.80;0.95;;;;;;;36.83;25.21;99246.97;6161494;23;20182;-91
2022/07/17 09:07:49;;;;;;;3.05;0.80;;;;;;;36.75;26.05;99243.81;6121019;23;20158;-90
2022/07/17 09:10:15;;;;;;;1.88;0.85;;;;;;;36.74;25.22;99242.19;6159875;23;20286;-90
2022/07/17 09:12:42;;;;;;;2.45;1.10;;;;;;;36.93;26.18;99247.13;6185911;23;20161;-91
2022/07/17 09:15:38;;;;;;;1.90;0.93;;;;;;;37.20;24.30;99246.50;6159439;23;20624;-92
2022/07/17 09:18:06;;;;;;;2.38;0.93;;;;;;;37.09;25.32;99250.16;6110966;23;20158;-89
2022/07/17 09:20:50;;;;;;;1.98;1.15;;;;;;;37.06;24.86;99247.91;6185747;23;20469;-90
2022/07/17 09:23:38;;;;;;;5.13;0.98;;;;;;;36.73;24.26;99252.28;6186470;23;20131;-90
2022/07/17 09:26:05;;;;;;;2.25;1.20;;;;;;;36.77;25.60;99253.41;6176679;23;20213;-90
2022/07/17 09:28:34;;;;;;;2.80;0.80;;;;;;;36.71;25.42;99250.88;6160318;23;20317;-91
2022/07/17 09:31:00;;;;;;;1.90;1.10;;;;;;;36.71;25.15;99250.88;6159726;23;20317;-91
2022/07/17 09:33:28;;;;;;;3.63;1.25;;;;;;;36.60;25.93;99255.31;6160040;23;20570;-91
2022/07/17 09:36:14;;;;;;;1.40;0.80;;;;;;;37.01;24.55;99247.81;6161507;23;20528;-91
2022/07/17 09:38:49;;;;;;;4.20;1.00;;;;;;;37.22;25.78;99247.06;6157563;23;20154;-90
2022/07/17 09:41:25;;;;;;;2.63;1.38;;;;;;;37.32;25.03;99239.03;6159234;23;20157;-91
2022/07/17 09:44:26;;;;;;;;;;;;;;;;;;;;;
2022/07/17 09:47:08;;;;;;;4.13;1.23;;;;;;;36.95;25.30;99245.00;6185136;23;20236;-90
2022/07/17 09:50:26;;;;;;;;;;;;;;;;;;;;;
2022/07/17 09:57:27;;;;;;;2.97;1.40;;;;;;;37.01;24.55;99245.94;6067627;23;20183;-92
2022/07/17 10:04:01;;;;;;;1.80;1.15;;;;;;;37.60;22.94;99238.09;5879101;24;20172;-90
2022/07/17 10:07:40;;;;;;;;;;;;;;;;;;;;;
2022/07/17 10:11:07;;;;;;;;;;;;;;;;;;;;;
2022/07/17 10:34:54;;;;;;;3.05;1.20;;;;;;;38.33;22.56;99207.56;5808858;24;20234;-90
2022/07/17 10:41:19;;;;;;;2.72;0.77;;;;;;;38.69;19.40;99206.81;5898521;24;20171;-90
2022/07/17 10:43:47;;;;;;;3.33;1.35;;;;;;;38.64;18.36;99209.50;5986841;23;20565;-89
2022/07/17 10:46:34;;;;;;;3.42;1.17;;;;;;;38.49;18.61;99206.63;6060549;23;20158;-91
2022/07/17 10:49:03;;;;;;;1.15;0.57;;;;;;;38.49;20.03;99212.13;6182925;23;20166;-91
2022/07/17 10:51:32;;;;;;;1.13;0.63;;;;;;;38.69;19.81;99198.59;6160769;23;20154;-89
2022/07/17 10:53:59;;;;;;;2.28;1.02;;;;;;;38.66;18.88;99205.41;6160787;23;20208;-90
2022/07/17 10:56:31;;;;;;;1.48;0.73;;;;;;;38.78;19.44;99196.22;6186773;23;20162;-94
2022/07/17 10:59:04;;;;;;;1.38;0.70;;;;;;;38.89;18.67;99196.03;6185863;23;20241;-92
2022/07/17 11:01:33;;;;;;;1.05;0.52;;;;;;;39.04;18.85;99187.94;6160886;23;20165;-92
2022/07/17 11:04:08;;;;;;;1.13;0.43;;;;;;;39.01;17.96;99196.69;6160740;23;20586;-90
2022/07/17 11:06:38;;;;;;;1.27;0.77;;;;;;;39.05;17.89;99181.34;6186918;23;20161;-89
2022/07/17 11:09:13;;;;;;;2.05;0.65;;;;;;;38.87;18.27;99184.50;6161661;23;20566;-89
2022/07/17 11:11:49;;;;;;;1.63;0.60;;;;;;;38.94;18.17;99189.78;6161037;23;20589;-90
2022/07/17 11:14:25;;;;;;;1.73;0.65;;;;;;;38.92;17.73;99186.47;6186799;23;20166;-93
2022/07/17 11:16:54;;;;;;;1.33;0.60;;;;;;;38.75;17.58;99172.09;6186878;23;20447;-92
2022/07/17 11:19:26;;;;;;;1.90;0.63;;;;;;;38.60;17.31;99181.00;6161253;23;20151;-89
2022/07/17 11:21:57;;;;;;;2.08;0.82;;;;;;;38.51;18.46;99168.84;6186746;23;20173;-89
2022/07/17 11:24:25;;;;;;;1.15;0.50;;;;;;;38.80;18.29;99161.16;6160763;23;20189;-90
2022/07/17 11:26:53;;;;;;;1.92;0.85;;;;;;;39.03;18.59;99161.59;6160762;23;20193;-92
2022/07/17 11:29:19;;;;;;;2.53;1.00;;;;;;;38.80;18.03;99158.41;6160891;23;20159;-91
2022/07/17 11:31:45;;;;;;;2.10;0.98;;;;;;;39.14;17.31;99152.38;6160571;23;20480;-90
2022/07/17 11:34:12;;;;;;;1.30;0.70;;;;;;;39.27;19.15;99149.19;6186773;23;20182;-89
2022/07/17 11:36:43;;;;;;;0.80;0.60;;;;;;;39.39;18.10;99151.69;6186314;23;20162;-88
2022/07/17 11:39:18;;;;;;;1.77;0.80;;;;;;;39.57;17.53;99150.41;6186580;23;20217;-91
2022/07/17 11:41:52;;;;;;;1.63;0.60;;;;;;;39.66;17.69;99155.16;6185379;23;20223;-91
2022/07/17 11:44:21;;;;;;;1.98;0.73;;;;;;;39.66;17.94;99148.81;6159641;23;20181;-91
2022/07/17 11:46:52;;;;;;;2.05;0.85;;;;;;;39.65;17.52;99156.22;6158841;23;20154;-90
2022/07/17 11:49:35;;;;;;;1.42;0.57;;;;;;;39.71;17.31;99151.59;6183314;23;20139;-91
2022/07/17 11:52:40;;;;;;;1.80;0.70;;;;;;;39.91;18.12;99148.94;6184617;23;20830;-91
2022/07/17 11:56:13;;;;;;;2.10;1.00;;;;;;;39.81;18.02;99157.09;6184334;23;20633;-91
2022/07/17 11:58:45;;;;;;;1.42;0.68;;;;;;;39.97;17.68;99156.06;6185895;23;20150;-90
2022/07/17 12:01:11;;;;;;;2.03;0.75;;;;;;;40.03;17.00;99154.16;6186454;23;20155;-90
2022/07/17 12:04:03;;;;;;;1.50;0.77;;;;;;;39.73;17.05;99155.72;6160909;23;20161;-94
2022/07/17 12:06:43;;;;;;;4.03;0.90;;;;;;;39.73;17.92;99160.41;6161058;23;20142;-91
2022/07/17 12:09:09;;;;;;;5.68;0.70;;;;;;;39.55;17.04;99152.59;6186495;23;20213;-90
2022/07/17 12:12:25;;;;;;;1.35;0.60;;;;;;;39.57;18.13;99142.19;6158173;23;20181;-91
2022/07/17 12:15:02;;;;;;;1.50;0.65;;;;;;;39.68;17.52;99146.63;6081914;23;20198;-91
2022/07/17 12:17:48;;;;;;;1.00;0.40;;;;;;;39.51;17.92;99146.81;6185071;23;20150;-91
2022/07/17 12:21:00;;;;;;;1.65;0.75;;;;;;;39.41;18.28;99145.94;6158541;23;20650;-90
2022/07/17 12:23:59;;;;;;;2.05;0.80;;;;;;;39.54;17.88;99137.22;6156918;23;20158;-92
2022/07/17 12:26:30;;;;;;;1.92;0.70;;;;;;;39.38;17.65;99141.00;6111337;23;20162;-92
2022/07/17 12:29:01;;;;;;;1.85;0.65;;;;;;;39.25;17.78;99143.13;6159155;23;20241;-90
2022/07/17 12:31:31;;;;;;;1.15;0.52;;;;;;;39.30;17.94;99145.91;6160140;23;20168;-90
2022/07/17 12:34:04;;;;;;;2.75;0.70;;;;;;;39.12;18.02;99140.00;6185805;23;20240;-96
2022/07/17 12:36:33;;;;;;;1.15;0.60;;;;;;;39.03;18.56;99134.19;6185240;23;20178;-91
2022/07/17 12:39:18;;;;;;;2.38;0.93;;;;;;;39.22;18.36;99134.59;6159635;23;20182;-92
2022/07/17 12:41:53;;;;;;;1.73;0.60;;;;;;;39.54;18.27;99131.75;6159455;23;20154;-91
2022/07/17 12:44:19;;;;;;;0.65;0.35;;;;;;;39.73;17.88;99132.94;6158352;23;20149;-90